WetterOnline ( https://www.wetteronline.at )

Wetter aktuell Putbus/Rügen

Aktuelles Wetter: Putbus/Rügen (41m)

6-stündlich | Neueste Meldungen
Ortszeit Temperatur Wetter
Sa, 16.01. 7:00 -2.7° C bedeckt
Sa, 16.01. 1:00 -3.0° C leicht bewölkt
Fr, 15.01. 19:00 -3.1° C bewölkt
Fr, 15.01. 13:00 -2.4° C wolkig
Fr, 15.01. 7:00 -0.8° C bedeckt
Fr, 15.01. 1:00 0.1° C bedeckt
Do, 14.01. 19:00 1.7° C bedeckt
Do, 14.01. 13:00 1.8° C Regen
Ortszeit Temperatur Wetter
Sa, 16.01. 12:00 -1.3° C bewölkt
Sa, 16.01. 11:50 -1.3° C bewölkt
Sa, 16.01. 11:40 -1.4° C bewölkt
Sa, 16.01. 11:30 -1.8° C leicht bewölkt
Sa, 16.01. 11:20 -1.8° C leicht bewölkt
Sa, 16.01. 11:10 -1.7° C fast wolkenlos
Sa, 16.01. 11:00 -2.2° C wolkenlos
Sa, 16.01. 10:30 -2.6° C wolkenlos
Sa, 16.01. 10:00 -3.5° C wolkig
Sa, 16.01. 9:30 -3.7° C wolkig
Sa, 16.01. 9:00 -3.8° C bedeckt
Ortszeit Relative Feuchte Sichtweite
Sa, 16.01. 7:00 79% 60 km
Sa, 16.01. 1:00 76% 55 km
Fr, 15.01. 19:00 72% >70 km
Fr, 15.01. 13:00 66% >70 km
Fr, 15.01. 7:00 77% 50 km
Fr, 15.01. 1:00 82% 55 km
Do, 14.01. 19:00 82% 40 km
Do, 14.01. 13:00 92% 35 km
Ortszeit Relative Feuchte Sichtweite
Sa, 16.01. 12:00 79% >70 km
Sa, 16.01. 11:50 79% -
Sa, 16.01. 11:40 78% -
Sa, 16.01. 11:30 77% >70 km
Sa, 16.01. 11:20 77% -
Sa, 16.01. 11:10 76% -
Sa, 16.01. 11:00 74% 50 km
Sa, 16.01. 10:30 77% >70 km
Sa, 16.01. 10:00 79% >70 km
Sa, 16.01. 9:30 79% >70 km
Sa, 16.01. 9:00 73% >70 km
Ortszeit Niederschlagsmenge Niederschlagsart
Sa, 16.01. 7:00 0.0 l/m2 in 12 Std. -
Sa, 16.01. 1:00 0.0 l/m2 in 6 Std. -
Fr, 15.01. 19:00 0.1 l/m2 in 12 Std. Schnee, Sprühregen
Fr, 15.01. 13:00 0.1 l/m2 in 6 Std. Schnee
Fr, 15.01. 7:00 0.1 l/m2 in 12 Std. Schnee
Fr, 15.01. 1:00 0.0 l/m2 in 6 Std. -
Do, 14.01. 19:00 0.6 l/m2 in 12 Std. Schnee, Regen
Do, 14.01. 13:00 0.5 l/m2 in 6 Std. Schnee, Regen
Ortszeit Niederschlagsmenge Niederschlagsart
Sa, 16.01. 12:00 0.0 l/m2 in 1 Std. -
Sa, 16.01. 11:50 keine Meldung -
Sa, 16.01. 11:40 keine Meldung -
Sa, 16.01. 11:30 0.0 l/m2 in 1 Std. -
Sa, 16.01. 11:20 keine Meldung -
Sa, 16.01. 11:10 keine Meldung -
Sa, 16.01. 11:00 0.0 l/m2 in 1 Std. -
Sa, 16.01. 10:30 0.0 l/m2 in 1 Std. -
Sa, 16.01. 10:00 0.0 l/m2 in 1 Std. -
Sa, 16.01. 9:30 0.0 l/m2 in 1 Std. -
Sa, 16.01. 9:00 0.0 l/m2 in 1 Std. -
Ortszeit Stärke Spitze Richtung
km/h Bft. km/h Grad Sektor
Sa, 16.01. 7:00 11 2 26 330° NW
Sa, 16.01. 1:00 13 3 35 360° N
Fr, 15.01. 19:00 13 3 33 340° N
Fr, 15.01. 13:00 20 4 33 350° N
Fr, 15.01. 7:00 15 3 28 320° NW
Fr, 15.01. 1:00 13 3 31 350° N
Do, 14.01. 19:00 18 3 36 10° N
Do, 14.01. 13:00 22 4 32 10° N
Ortszeit Stärke Spitze Richtung
km/h Bft. km/h Grad Sektor
Sa, 16.01. 12:00 18 3 32 300° NW
Sa, 16.01. 11:50 18 3 - 300° NW
Sa, 16.01. 11:40 17 3 - 310° NW
Sa, 16.01. 11:30 19 3 33 320° NW
Sa, 16.01. 11:20 19 3 - 320° NW
Sa, 16.01. 11:10 17 3 - 330° NW
Sa, 16.01. 11:00 15 3 28 330° NW
Sa, 16.01. 10:30 11 2 22 330° NW
Sa, 16.01. 10:00 9 2 19 310° NW
Sa, 16.01. 9:30 13 3 19 310° NW
Sa, 16.01. 9:00 11 2 25 320° NW
Ortszeit Untergrenze Bedeckung Gattung
total tief tief mittel hoch
Sa, 16.01. 7:00 570 m 8/8 8/8 - - -
Sa, 16.01. 1:00 690 m 3/8 3/8 - - -
Fr, 15.01. 19:00 780 m 8/8 6/8 - - -
Fr, 15.01. 13:00 660 m 7/8 3/8 - - -
Fr, 15.01. 7:00 510 m 8/8 8/8 - - -
Fr, 15.01. 1:00 510 m 8/8 8/8 - - -
Do, 14.01. 19:00 510 m 8/8 8/8 - - -
Do, 14.01. 13:00 180 m 8/8 8/8 - - -
Ortszeit Bedeckungsgrad in Achtel und Wolkenuntergrenze
Sa, 16.01. 12:00 7(420m)
Sa, 16.01. 11:50 7(420m)
Sa, 16.01. 11:40 7(420m)
Sa, 16.01. 11:30 4(420m)
Sa, 16.01. 11:20 4(420m)
Sa, 16.01. 11:10 1(420m)
Sa, 16.01. 11:00 keine Wolken
Sa, 16.01. 10:30 keine Wolken
Sa, 16.01. 10:00 2(450m) 7(4800m)
Sa, 16.01. 9:30 2(480m) 8(4800m)
Sa, 16.01. 9:00 3(4200m) 8(4800m)
Ortszeit Luftdruck NN (hPa) Tendenz (hPa in 3 Std.)
Sa, 16.01. 7:00 1024 - 1,0
Sa, 16.01. 1:00 1025 - 0,5
Fr, 15.01. 19:00 1026 + 0,8
Fr, 15.01. 13:00 1024 + 0,8
Fr, 15.01. 7:00 1022 0,0
Fr, 15.01. 1:00 1022 + 0,5
Do, 14.01. 19:00 1020 + 1,4
Do, 14.01. 13:00 1017 + 1,8
Ortszeit Luftdruck NN (hPa) Tendenz (hPa in 3 Std.)
Sa, 16.01. 12:00 1022 - 1,5
Sa, 16.01. 11:50 1022 keine Meldung
Sa, 16.01. 11:40 1022 keine Meldung
Sa, 16.01. 11:30 1022 - 1,0
Sa, 16.01. 11:20 1022 keine Meldung
Sa, 16.01. 11:10 1022 keine Meldung
Sa, 16.01. 11:00 1023 - 0,7
Sa, 16.01. 10:30 1023 - 0,4
Sa, 16.01. 10:00 1023 - 0,8
Sa, 16.01. 9:30 1023 - 0,8
Sa, 16.01. 9:00 1023 - 0,7
Ortszeit Schneehöhe (cm)
Sa, 16.01. 7:00 0
Sa, 16.01. 1:00 0
Fr, 15.01. 19:00 0
Fr, 15.01. 13:00 0
Fr, 15.01. 7:00 0
Fr, 15.01. 1:00 0
Do, 14.01. 19:00 0
Do, 14.01. 13:00 0
Ortszeit Schneehöhe (cm)
Sa, 16.01. 12:00 0
Sa, 16.01. 11:50 0
Sa, 16.01. 11:40 0
Sa, 16.01. 11:30 0
Sa, 16.01. 11:20 0
Sa, 16.01. 11:10 0
Sa, 16.01. 11:00 0
Sa, 16.01. 10:30 0
Sa, 16.01. 10:00 0
Sa, 16.01. 9:30 0
Sa, 16.01. 9:00 0
Link zu dieser Seite / Seite empfehlen

Das Wetter in ...